sensor_id;sensor_type;location;lat;lon;timestamp;pressure;altitude;pressure_sealevel;temperature;humidity
78459;BME280;67753;42.684;23.330;2023-07-09T00:01:54;95414.16;;;19.97;62.88
78459;BME280;67753;42.684;23.330;2023-07-09T00:03:58;95414.88;;;20.01;62.78
78459;BME280;67753;42.684;23.330;2023-07-09T00:06:00;95418.34;;;20.05;62.67
78459;BME280;67753;42.684;23.330;2023-07-09T00:08:02;95410.97;;;20.02;62.84
78459;BME280;67753;42.684;23.330;2023-07-09T00:10:08;95414.00;;;20.11;62.23
78459;BME280;67753;42.684;23.330;2023-07-09T00:12:16;95415.53;;;20.12;62.37
78459;BME280;67753;42.684;23.330;2023-07-09T00:14:17;95408.28;;;19.99;62.56
78459;BME280;67753;42.684;23.330;2023-07-09T00:16:21;95410.25;;;19.98;62.54
78459;BME280;67753;42.684;23.330;2023-07-09T00:18:24;95404.06;;;19.94;63.07
78459;BME280;67753;42.684;23.330;2023-07-09T00:20:28;95407.19;;;19.92;63.05
78459;BME280;67753;42.684;23.330;2023-07-09T00:22:30;95411.53;;;19.86;62.77
78459;BME280;67753;42.684;23.330;2023-07-09T00:24:30;95402.53;;;19.93;62.84
78459;BME280;67753;42.684;23.330;2023-07-09T00:26:33;95406.47;;;19.88;62.91
78459;BME280;67753;42.684;23.330;2023-07-09T00:28:37;95404.91;;;19.91;62.48
78459;BME280;67753;42.684;23.330;2023-07-09T00:30:38;95404.06;;;19.94;62.62
78459;BME280;67753;42.684;23.330;2023-07-09T00:32:40;95408.00;;;19.89;62.42
78459;BME280;67753;42.684;23.330;2023-07-09T00:34:43;95405.25;;;19.93;62.31
78459;BME280;67753;42.684;23.330;2023-07-09T00:36:50;95402.63;;;19.86;62.06
78459;BME280;67753;42.684;23.330;2023-07-09T00:38:53;95401.78;;;19.89;62.02
78459;BME280;67753;42.684;23.330;2023-07-09T00:41:01;95398.63;;;19.94;61.86
78459;BME280;67753;42.684;23.330;2023-07-09T00:43:11;95398.63;;;19.94;61.87
78459;BME280;67753;42.684;23.330;2023-07-09T00:45:19;95401.75;;;19.92;61.91
78459;BME280;67753;42.684;23.330;2023-07-09T00:47:25;95401.00;;;19.92;62.01
78459;BME280;67753;42.684;23.330;2023-07-09T00:49:29;95400.91;;;19.99;62.27
78459;BME280;67753;42.684;23.330;2023-07-09T00:51:33;95398.63;;;19.94;61.76
78459;BME280;67753;42.684;23.330;2023-07-09T00:53:45;95397.13;;;19.89;62.05
78459;BME280;67753;42.684;23.330;2023-07-09T00:55:51;95383.03;;;19.98;61.88
78459;BME280;67753;42.684;23.330;2023-07-09T00:57:56;95389.00;;;19.86;61.94
78459;BME280;67753;42.684;23.330;2023-07-09T01:00:04;95387.00;;;19.90;61.91
78459;BME280;67753;42.684;23.330;2023-07-09T01:02:10;95388.56;;;19.91;61.83
78459;BME280;67753;42.684;23.330;2023-07-09T01:04:12;95388.50;;;19.95;62.10
78459;BME280;67753;42.684;23.330;2023-07-09T01:06:18;95385.47;;;19.89;61.67
78459;BME280;67753;42.684;23.330;2023-07-09T01:08:22;95391.69;;;19.89;61.91
78459;BME280;67753;42.684;23.330;2023-07-09T01:10:25;95391.31;;;19.87;61.78
78459;BME280;67753;42.684;23.330;2023-07-09T01:12:27;95391.38;;;19.80;62.05
78459;BME280;67753;42.684;23.330;2023-07-09T01:14:30;95391.00;;;19.82;62.12
78459;BME280;67753;42.684;23.330;2023-07-09T01:16:35;95388.56;;;19.91;61.78
78459;BME280;67753;42.684;23.330;2023-07-09T01:18:38;95386.28;;;19.86;61.76
78459;BME280;67753;42.684;23.330;2023-07-09T01:20:40;95387.09;;;19.83;61.78
78459;BME280;67753;42.684;23.330;2023-07-09T01:22:44;95379.28;;;19.85;61.66
78459;BME280;67753;42.684;23.330;2023-07-09T01:24:52;95379.66;;;19.87;61.74
78459;BME280;67753;42.684;23.330;2023-07-09T01:26:54;95379.38;;;19.78;61.31
78459;BME280;67753;42.684;23.330;2023-07-09T01:28:56;95380.03;;;19.89;61.22
78459;BME280;67753;42.684;23.330;2023-07-09T01:30:58;95373.47;;;19.86;61.70
78459;BME280;67753;42.684;23.330;2023-07-09T01:33:03;95377.00;;;19.80;61.99
78459;BME280;67753;42.684;23.330;2023-07-09T01:35:07;95375.47;;;19.79;61.80
78459;BME280;67753;42.684;23.330;2023-07-09T01:37:11;95370.88;;;19.72;62.13
78459;BME280;67753;42.684;23.330;2023-07-09T01:39:15;95375.47;;;19.79;61.64
78459;BME280;67753;42.684;23.330;2023-07-09T01:41:17;95375.56;;;19.72;62.14
78459;BME280;67753;42.684;23.330;2023-07-09T01:43:19;95376.28;;;19.76;62.12
78459;BME280;67753;42.684;23.330;2023-07-09T01:45:21;95384.94;;;19.63;62.25
78459;BME280;67753;42.684;23.330;2023-07-09T01:47:23;95383.34;;;19.70;61.96
78459;BME280;67753;42.684;23.330;2023-07-09T01:49:25;95388.78;;;19.66;62.02
78459;BME280;67753;42.684;23.330;2023-07-09T01:51:30;95392.66;;;19.72;62.14
78459;BME280;67753;42.684;23.330;2023-07-09T01:53:32;95393.53;;;19.55;62.29
78459;BME280;67753;42.684;23.330;2023-07-09T01:55:35;95398.19;;;19.58;62.59
78459;BME280;67753;42.684;23.330;2023-07-09T01:57:37;95397.38;;;19.64;62.50
78459;BME280;67753;42.684;23.330;2023-07-09T01:59:41;95393.53;;;19.58;62.63
78459;BME280;67753;42.684;23.330;2023-07-09T02:01:44;95398.22;;;19.54;63.02
78459;BME280;67753;42.684;23.330;2023-07-09T02:03:46;95403.22;;;19.59;63.22
78459;BME280;67753;42.684;23.330;2023-07-09T02:05:48;95402.91;;;19.50;63.32
78459;BME280;67753;42.684;23.330;2023-07-09T02:07:51;95397.41;;;19.57;62.99
78459;BME280;67753;42.684;23.330;2023-07-09T02:09:54;95392.81;;;19.47;63.40
78459;BME280;67753;42.684;23.330;2023-07-09T02:11:57;95399.78;;;19.52;63.35
78459;BME280;67753;42.684;23.330;2023-07-09T02:13:59;95398.25;;;19.47;63.87
78459;BME280;67753;42.684;23.330;2023-07-09T02:16:01;95396.38;;;19.40;63.55
78459;BME280;67753;42.684;23.330;2023-07-09T02:18:03;95393.34;;;19.35;63.75
78459;BME280;67753;42.684;23.330;2023-07-09T02:20:05;95388.25;;;19.37;63.84
78459;BME280;67753;42.684;23.330;2023-07-09T02:22:09;95388.97;;;19.45;64.21
78459;BME280;67753;42.684;23.330;2023-07-09T02:24:11;95397.88;;;19.49;64.10
78459;BME280;67753;42.684;23.330;2023-07-09T02:26:13;95392.06;;;19.43;64.78
78459;BME280;67753;42.684;23.330;2023-07-09T02:28:16;95400.66;;;19.38;64.81
78459;BME280;67753;42.684;23.330;2023-07-09T02:30:18;95399.94;;;19.34;65.35
78459;BME280;67753;42.684;23.330;2023-07-09T02:32:21;95396.06;;;19.35;64.92
78459;BME280;67753;42.684;23.330;2023-07-09T02:34:24;95406.16;;;19.34;64.75
78459;BME280;67753;42.684;23.330;2023-07-09T02:36:26;95405.09;;;19.18;64.97
78459;BME280;67753;42.684;23.330;2023-07-09T02:38:27;95413.25;;;19.18;65.47
78459;BME280;67753;42.684;23.330;2023-07-09T02:40:29;95414.78;;;19.19;65.42
78459;BME280;67753;42.684;23.330;2023-07-09T02:42:31;95406.22;;;19.24;65.88
78459;BME280;67753;42.684;23.330;2023-07-09T02:44:35;95416.25;;;19.34;65.88
78459;BME280;67753;42.684;23.330;2023-07-09T02:46:37;95413.97;;;19.25;66.82
78459;BME280;67753;42.684;23.330;2023-07-09T02:48:38;95412.47;;;19.21;67.48
78459;BME280;67753;42.684;23.330;2023-07-09T02:50:40;95412.59;;;19.03;68.48
78459;BME280;67753;42.684;23.330;2023-07-09T02:52:42;95423.47;;;18.99;69.57
78459;BME280;67753;42.684;23.330;2023-07-09T02:54:45;95422.72;;;18.95;69.69
78459;BME280;67753;42.684;23.330;2023-07-09T02:56:46;95423.53;;;18.92;70.24
78459;BME280;67753;42.684;23.330;2023-07-09T02:58:49;95431.34;;;18.83;71.13
78459;BME280;67753;42.684;23.330;2023-07-09T03:00:53;95432.09;;;18.87;71.02
78459;BME280;67753;42.684;23.330;2023-07-09T03:02:54;95431.38;;;18.72;72.26
78459;BME280;67753;42.684;23.330;2023-07-09T03:04:57;95426.72;;;18.65;72.44
78459;BME280;67753;42.684;23.330;2023-07-09T03:06:59;95433.34;;;18.64;72.84
78459;BME280;67753;42.684;23.330;2023-07-09T03:09:02;95440.72;;;18.60;73.08
78459;BME280;67753;42.684;23.330;2023-07-09T03:11:09;95440.34;;;18.58;73.36
78459;BME280;67753;42.684;23.330;2023-07-09T03:13:11;95434.13;;;18.69;73.34
78459;BME280;67753;42.684;23.330;2023-07-09T03:15:13;95433.03;;;18.45;74.47
78459;BME280;67753;42.684;23.330;2023-07-09T03:17:17;95432.97;;;18.55;74.29
78459;BME280;67753;42.684;23.330;2023-07-09T03:19:19;95433.41;;;18.50;74.46
78459;BME280;67753;42.684;23.330;2023-07-09T03:21:23;95436.13;;;18.43;74.98
78459;BME280;67753;42.684;23.330;2023-07-09T03:23:26;95430.69;;;18.43;75.24
78459;BME280;67753;42.684;23.330;2023-07-09T03:25:28;95442.72;;;18.49;75.52
78459;BME280;67753;42.684;23.330;2023-07-09T03:27:29;95436.94;;;18.40;75.46
78459;BME280;67753;42.684;23.330;2023-07-09T03:29:31;95440.38;;;18.44;75.83
78459;BME280;67753;42.684;23.330;2023-07-09T03:31:33;95440.03;;;18.38;76.05
78459;BME280;67753;42.684;23.330;2023-07-09T03:33:37;95440.03;;;18.38;76.29
78459;BME280;67753;42.684;23.330;2023-07-09T03:35:39;95436.53;;;18.38;76.30
78459;BME280;67753;42.684;23.330;2023-07-09T03:37:42;95443.91;;;18.34;77.10
78459;BME280;67753;42.684;23.330;2023-07-09T03:39:45;95435.81;;;18.27;76.93
78459;BME280;67753;42.684;23.330;2023-07-09T03:41:47;95436.97;;;18.26;76.88
78459;BME280;67753;42.684;23.330;2023-07-09T03:43:49;95432.31;;;18.23;77.65
78459;BME280;67753;42.684;23.330;2023-07-09T03:45:53;95431.56;;;18.15;77.98
78459;BME280;67753;42.684;23.330;2023-07-09T03:47:55;95435.00;;;18.37;77.55
78459;BME280;67753;42.684;23.330;2023-07-09T03:49:58;95441.59;;;18.29;77.97
78459;BME280;67753;42.684;23.330;2023-07-09T03:52:00;95436.97;;;18.26;78.81
78459;BME280;67753;42.684;23.330;2023-07-09T03:54:02;95434.66;;;18.21;79.74
78459;BME280;67753;42.684;23.330;2023-07-09T03:56:04;95435.81;;;18.20;79.00
78459;BME280;67753;42.684;23.330;2023-07-09T03:58:05;95435.41;;;18.25;79.09
78459;BME280;67753;42.684;23.330;2023-07-09T04:00:07;95445.47;;;18.35;78.84
78459;BME280;67753;42.684;23.330;2023-07-09T04:02:11;95435.81;;;18.27;79.23
78459;BME280;67753;42.684;23.330;2023-07-09T04:04:13;95436.97;;;18.26;79.04
78459;BME280;67753;42.684;23.330;2023-07-09T04:06:16;95443.91;;;18.34;78.89
78459;BME280;67753;42.684;23.330;2023-07-09T04:08:18;95448.56;;;18.30;78.89
78459;BME280;67753;42.684;23.330;2023-07-09T04:10:20;95444.72;;;18.27;78.82
78459;BME280;67753;42.684;23.330;2023-07-09T04:12:23;95455.53;;;18.38;78.76
78459;BME280;67753;42.684;23.330;2023-07-09T04:14:25;95457.88;;;18.32;79.06
78459;BME280;67753;42.684;23.330;2023-07-09T04:16:27;95467.13;;;18.49;77.74
78459;BME280;67753;42.684;23.330;2023-07-09T04:18:29;95461.72;;;18.38;77.35
78459;BME280;67753;42.684;23.330;2023-07-09T04:20:30;95470.56;;;18.60;75.24
78459;BME280;67753;42.684;23.330;2023-07-09T04:22:36;95470.97;;;18.59;76.01
78459;BME280;67753;42.684;23.330;2023-07-09T04:24:38;95472.50;;;18.63;76.52
78459;BME280;67753;42.684;23.330;2023-07-09T04:26:39;95466.31;;;18.59;76.69
78459;BME280;67753;42.684;23.330;2023-07-09T04:28:42;95468.63;;;18.57;76.95
78459;BME280;67753;42.684;23.330;2023-07-09T04:30:47;95471.72;;;18.67;76.30
78459;BME280;67753;42.684;23.330;2023-07-09T04:32:49;95468.63;;;18.64;76.22
78459;BME280;67753;42.684;23.330;2023-07-09T04:34:51;95474.78;;;18.83;75.14
78459;BME280;67753;42.684;23.330;2023-07-09T04:36:53;95482.09;;;18.93;73.16
78459;BME280;67753;42.684;23.330;2023-07-09T04:38:57;95485.44;;;19.19;71.96
78459;BME280;67753;42.684;23.330;2023-07-09T04:40:59;95483.94;;;19.10;70.47
78459;BME280;67753;42.684;23.330;2023-07-09T04:43:01;95483.91;;;19.18;70.35
78459;BME280;67753;42.684;23.330;2023-07-09T04:45:03;95493.16;;;19.24;70.45
78459;BME280;67753;42.684;23.330;2023-07-09T04:47:06;95483.88;;;19.21;71.00
78459;BME280;67753;42.684;23.330;2023-07-09T04:49:08;95488.81;;;19.37;70.64
78459;BME280;67753;42.684;23.330;2023-07-09T04:51:12;95482.63;;;19.33;69.78
78459;BME280;67753;42.684;23.330;2023-07-09T04:53:14;95486.09;;;19.40;69.57
78459;BME280;67753;42.684;23.330;2023-07-09T04:55:18;95489.16;;;19.46;69.62
78459;BME280;67753;42.684;23.330;2023-07-09T04:57:21;95486.84;;;19.41;69.29
78459;BME280;67753;42.684;23.330;2023-07-09T04:59:23;95483.72;;;19.42;69.46
78459;BME280;67753;42.684;23.330;2023-07-09T05:01:25;95489.94;;;19.43;68.64
78459;BME280;67753;42.684;23.330;2023-07-09T05:03:27;95489.88;;;19.54;69.30
78459;BME280;67753;42.684;23.330;2023-07-09T05:05:29;95494.53;;;19.53;69.32
78459;BME280;67753;42.684;23.330;2023-07-09T05:07:31;95492.94;;;19.59;69.33
78459;BME280;67753;42.684;23.330;2023-07-09T05:09:33;95495.13;;;19.79;69.07
78459;BME280;67753;42.684;23.330;2023-07-09T05:11:37;95498.28;;;19.74;68.50
78459;BME280;67753;42.684;23.330;2023-07-09T05:13:38;95496.72;;;19.76;68.51
78459;BME280;67753;42.684;23.330;2023-07-09T05:15:41;95492.28;;;19.97;68.57
78459;BME280;67753;42.684;23.330;2023-07-09T05:17:44;95492.59;;;20.02;68.83
78459;BME280;67753;42.684;23.330;2023-07-09T05:19:47;95494.16;;;20.03;68.31
78459;BME280;67753;42.684;23.330;2023-07-09T05:21:49;95505.63;;;20.25;67.95
78459;BME280;67753;42.684;23.330;2023-07-09T05:23:51;95507.28;;;20.12;66.91
78459;BME280;67753;42.684;23.330;2023-07-09T05:25:56;95499.81;;;20.23;67.33
78459;BME280;67753;42.684;23.330;2023-07-09T05:27:59;95500.06;;;20.36;67.41
78459;BME280;67753;42.684;23.330;2023-07-09T05:30:01;95490.75;;;20.33;67.59
78459;BME280;67753;42.684;23.330;2023-07-09T05:32:04;95502.34;;;20.41;67.05
78459;BME280;67753;42.684;23.330;2023-07-09T05:34:06;95499.28;;;20.35;66.09
78459;BME280;67753;42.684;23.330;2023-07-09T05:36:08;95504.84;;;20.25;66.33
78459;BME280;67753;42.684;23.330;2023-07-09T05:38:14;95500.94;;;20.26;65.97
78459;BME280;67753;42.684;23.330;2023-07-09T05:40:16;95493.97;;;20.25;65.96
78459;BME280;67753;42.684;23.330;2023-07-09T05:42:18;95496.72;;;20.17;66.04
78459;BME280;67753;42.684;23.330;2023-07-09T05:44:21;95491.56;;;20.30;66.31
78459;BME280;67753;42.684;23.330;2023-07-09T05:46:23;95497.63;;;20.49;66.28
78459;BME280;67753;42.684;23.330;2023-07-09T05:48:25;95495.47;;;20.29;65.25
78459;BME280;67753;42.684;23.330;2023-07-09T05:50:27;95508.22;;;20.36;65.48
78459;BME280;67753;42.684;23.330;2023-07-09T05:52:29;95510.91;;;20.39;65.54
78459;BME280;67753;42.684;23.330;2023-07-09T05:54:31;95498.38;;;20.49;65.77
78459;BME280;67753;42.684;23.330;2023-07-09T05:56:34;95502.94;;;20.59;65.56
78459;BME280;67753;42.684;23.330;2023-07-09T05:58:36;95502.28;;;20.48;65.50
78459;BME280;67753;42.684;23.330;2023-07-09T06:00:38;95501.56;;;20.40;66.01
78459;BME280;67753;42.684;23.330;2023-07-09T06:02:41;95501.06;;;20.56;65.77
78459;BME280;67753;42.684;23.330;2023-07-09T06:04:43;95495.16;;;20.61;65.43
78459;BME280;67753;42.684;23.330;2023-07-09T06:06:45;95495.31;;;20.47;65.69
78459;BME280;67753;42.684;23.330;2023-07-09T06:08:46;95506.13;;;20.54;66.03
78459;BME280;67753;42.684;23.330;2023-07-09T06:10:56;95508.91;;;20.81;66.07
78459;BME280;67753;42.684;23.330;2023-07-09T06:12:58;95501.19;;;20.76;65.97
78459;BME280;67753;42.684;23.330;2023-07-09T06:14:58;95492.34;;;20.99;66.11
78459;BME280;67753;42.684;23.330;2023-07-09T06:17:02;95502.38;;;21.06;65.81
78459;BME280;67753;42.684;23.330;2023-07-09T06:19:03;95498.00;;;20.85;66.01
78459;BME280;67753;42.684;23.330;2023-07-09T06:21:06;95493.75;;;20.80;66.06
78459;BME280;67753;42.684;23.330;2023-07-09T06:23:10;95499.16;;;21.14;65.89
78459;BME280;67753;42.684;23.330;2023-07-09T06:25:12;95486.72;;;21.13;65.69
78459;BME280;67753;42.684;23.330;2023-07-09T06:27:14;95500.59;;;21.23;65.80
78459;BME280;67753;42.684;23.330;2023-07-09T06:29:16;95496.69;;;21.24;65.59
78459;BME280;67753;42.684;23.330;2023-07-09T06:31:18;95493.25;;;21.19;64.33
78459;BME280;67753;42.684;23.330;2023-07-09T06:33:23;95485.25;;;21.05;64.23
78459;BME280;67753;42.684;23.330;2023-07-09T06:35:25;95489.06;;;21.11;63.43
78459;BME280;67753;42.684;23.330;2023-07-09T06:37:27;95498.22;;;21.25;63.73
78459;BME280;67753;42.684;23.330;2023-07-09T06:39:29;95497.41;;;21.28;63.71
78459;BME280;67753;42.684;23.330;2023-07-09T06:41:30;95508.31;;;21.28;62.62
78459;BME280;67753;42.684;23.330;2023-07-09T06:43:39;95492.78;;;21.25;62.90
78459;BME280;67753;42.684;23.330;2023-07-09T06:45:48;95486.28;;;21.46;63.05
78459;BME280;67753;42.684;23.330;2023-07-09T06:47:49;95486.50;;;21.55;61.89
78459;BME280;67753;42.684;23.330;2023-07-09T06:49:52;95490.03;;;21.55;61.58
78459;BME280;67753;42.684;23.330;2023-07-09T06:51:54;95510.28;;;21.54;62.25
78459;BME280;67753;42.684;23.330;2023-07-09T06:53:56;95498.00;;;21.42;61.67
78459;BME280;67753;42.684;23.330;2023-07-09T06:55:58;95494.19;;;21.63;61.20
78459;BME280;67753;42.684;23.330;2023-07-09T06:58:00;95496.41;;;21.45;60.74
78459;BME280;67753;42.684;23.330;2023-07-09T07:00:03;95485.50;;;21.45;61.75
78459;BME280;67753;42.684;23.330;2023-07-09T07:02:05;95495.28;;;21.69;61.75
78459;BME280;67753;42.684;23.330;2023-07-09T07:04:07;95489.81;;;21.69;59.89
78459;BME280;67753;42.684;23.330;2023-07-09T07:06:10;95487.09;;;21.93;59.35
78459;BME280;67753;42.684;23.330;2023-07-09T07:08:13;95491.69;;;21.73;60.26
78459;BME280;67753;42.684;23.330;2023-07-09T07:10:16;95493.72;;;21.68;59.79
78459;BME280;67753;42.684;23.330;2023-07-09T07:12:28;95499.34;;;21.58;60.96
78459;BME280;67753;42.684;23.330;2023-07-09T07:14:30;95489.50;;;21.87;61.13
78459;BME280;67753;42.684;23.330;2023-07-09T07:16:32;95491.22;;;21.78;60.57
78459;BME280;67753;42.684;23.330;2023-07-09T07:18:34;95490.66;;;21.90;60.10
78459;BME280;67753;42.684;23.330;2023-07-09T07:20:36;95492.41;;;22.00;59.84
78459;BME280;67753;42.684;23.330;2023-07-09T07:22:40;95495.78;;;22.11;58.85
78459;BME280;67753;42.684;23.330;2023-07-09T07:24:41;95495.03;;;22.07;58.46
78459;BME280;67753;42.684;23.330;2023-07-09T07:26:43;95483.53;;;21.96;58.45
78459;BME280;67753;42.684;23.330;2023-07-09T07:28:46;95486.47;;;22.05;58.47
78459;BME280;67753;42.684;23.330;2023-07-09T07:30:58;95481.16;;;22.22;58.07
78459;BME280;67753;42.684;23.330;2023-07-09T07:32:59;95482.44;;;22.37;57.94
78459;BME280;67753;42.684;23.330;2023-07-09T07:35:01;95477.84;;;22.54;57.26
78459;BME280;67753;42.684;23.330;2023-07-09T07:37:04;95485.81;;;22.64;56.52
78459;BME280;67753;42.684;23.330;2023-07-09T07:39:07;95475.88;;;22.54;57.30
78459;BME280;67753;42.684;23.330;2023-07-09T07:41:09;95475.72;;;22.61;56.49
78459;BME280;67753;42.684;23.330;2023-07-09T07:43:11;95471.81;;;22.62;57.87
78459;BME280;67753;42.684;23.330;2023-07-09T07:45:12;95480.56;;;22.54;57.31
78459;BME280;67753;42.684;23.330;2023-07-09T07:47:13;95478.84;;;22.63;58.03
78459;BME280;67753;42.684;23.330;2023-07-09T07:49:16;95484.06;;;22.54;56.98
78459;BME280;67753;42.684;23.330;2023-07-09T07:51:18;95474.91;;;22.44;56.95
78459;BME280;67753;42.684;23.330;2023-07-09T07:53:20;95482.13;;;22.55;55.98
78459;BME280;67753;42.684;23.330;2023-07-09T07:55:26;95480.97;;;22.72;56.91
78459;BME280;67753;42.684;23.330;2023-07-09T07:57:28;95483.16;;;22.81;56.61
78459;BME280;67753;42.684;23.330;2023-07-09T07:59:29;95480.97;;;22.72;57.10
78459;BME280;67753;42.684;23.330;2023-07-09T08:01:33;95472.00;;;22.71;57.01
78459;BME280;67753;42.684;23.330;2023-07-09T08:03:36;95475.81;;;22.78;56.83
78459;BME280;67753;42.684;23.330;2023-07-09T08:05:38;95477.53;;;22.88;56.57
78459;BME280;67753;42.684;23.330;2023-07-09T08:07:39;95480.91;;;22.95;56.07
78459;BME280;67753;42.684;23.330;2023-07-09T08:09:40;95476.00;;;22.87;56.39
78459;BME280;67753;42.684;23.330;2023-07-09T08:11:44;95468.56;;;23.07;56.30
78459;BME280;67753;42.684;23.330;2023-07-09T08:13:46;95468.66;;;23.04;54.33
78459;BME280;67753;42.684;23.330;2023-07-09T08:15:48;95461.84;;;23.28;54.19
78459;BME280;67753;42.684;23.330;2023-07-09T08:17:49;95468.97;;;23.42;55.40
78459;BME280;67753;42.684;23.330;2023-07-09T08:19:53;95462.53;;;23.68;54.96
78459;BME280;67753;42.684;23.330;2023-07-09T08:21:55;95460.22;;;23.67;53.99
78459;BME280;67753;42.684;23.330;2023-07-09T08:23:57;95464.97;;;23.63;55.08
78459;BME280;67753;42.684;23.330;2023-07-09T08:26:00;95462.53;;;23.68;54.87
78459;BME280;67753;42.684;23.330;2023-07-09T08:28:04;95461.19;;;23.57;54.88
78459;BME280;67753;42.684;23.330;2023-07-09T08:30:07;95467.59;;;23.34;54.73
78459;BME280;67753;42.684;23.330;2023-07-09T08:32:10;95461.28;;;23.53;55.95
78459;BME280;67753;42.684;23.330;2023-07-09T08:34:12;95458.88;;;23.55;55.28
78459;BME280;67753;42.684;23.330;2023-07-09T08:36:15;95462.84;;;23.54;55.08
78459;BME280;67753;42.684;23.330;2023-07-09T08:38:16;95458.31;;;23.80;55.77
78459;BME280;67753;42.684;23.330;2023-07-09T08:40:19;95452.06;;;23.80;55.33
78459;BME280;67753;42.684;23.330;2023-07-09T08:42:26;95467.00;;;24.08;54.62
78459;BME280;67753;42.684;23.330;2023-07-09T08:44:55;95453.75;;;24.06;54.90
78459;BME280;67753;42.684;23.330;2023-07-09T08:47:02;95460.44;;;23.89;56.06
78459;BME280;67753;42.684;23.330;2023-07-09T08:49:17;95466.13;;;23.82;54.77
78459;BME280;67753;42.684;23.330;2023-07-09T08:51:26;95449.94;;;23.71;55.54
78459;BME280;67753;42.684;23.330;2023-07-09T08:53:34;95455.81;;;24.18;54.14
78459;BME280;67753;42.684;23.330;2023-07-09T08:55:37;95476.25;;;24.14;54.44
78459;BME280;67753;42.684;23.330;2023-07-09T08:57:44;95465.59;;;23.87;55.27
78459;BME280;67753;42.684;23.330;2023-07-09T08:59:49;95467.38;;;23.93;55.13
78459;BME280;67753;42.684;23.330;2023-07-09T09:01:57;95460.22;;;24.29;55.34
78459;BME280;67753;42.684;23.330;2023-07-09T09:04:04;95459.75;;;24.01;54.70
78459;BME280;67753;42.684;23.330;2023-07-09T09:06:11;95460.28;;;23.96;54.84
78459;BME280;67753;42.684;23.330;2023-07-09T09:08:23;95467.72;;;24.41;55.09
78459;BME280;67753;42.684;23.330;2023-07-09T09:10:33;95458.97;;;24.46;53.60
78459;BME280;67753;42.684;23.330;2023-07-09T09:12:44;95458.22;;;24.45;53.73
78459;BME280;67753;42.684;23.330;2023-07-09T09:14:55;95468.91;;;24.56;53.57
78459;BME280;67753;42.684;23.330;2023-07-09T09:17:02;95475.28;;;24.20;53.91
78459;BME280;67753;42.684;23.330;2023-07-09T09:19:15;95456.28;;;24.30;54.16
78459;BME280;67753;42.684;23.330;2023-07-09T09:21:23;95445.19;;;24.04;53.63
78459;BME280;67753;42.684;23.330;2023-07-09T09:23:31;95453.97;;;24.28;53.96
78459;BME280;67753;42.684;23.330;2023-07-09T09:25:41;95461.72;;;24.46;53.11
78459;BME280;67753;42.684;23.330;2023-07-09T09:27:45;95460.03;;;24.36;52.54
78459;BME280;67753;42.684;23.330;2023-07-09T09:29:47;95459.38;;;24.61;52.88
78459;BME280;67753;42.684;23.330;2023-07-09T09:31:52;95452.19;;;24.51;52.84
78459;BME280;67753;42.684;23.330;2023-07-09T09:33:57;95454.91;;;24.38;53.04
78459;BME280;67753;42.684;23.330;2023-07-09T09:36:02;95452.84;;;24.42;53.04
78459;BME280;67753;42.684;23.330;2023-07-09T09:38:11;95443.22;;;24.50;52.97
78459;BME280;67753;42.684;23.330;2023-07-09T09:40:13;95460.41;;;24.80;52.64
78459;BME280;67753;42.684;23.330;2023-07-09T09:42:16;95447.91;;;24.79;52.77
78459;BME280;67753;42.684;23.330;2023-07-09T09:44:19;95447.53;;;24.64;52.96
78459;BME280;67753;42.684;23.330;2023-07-09T09:46:23;95446.03;;;24.76;52.44
78459;BME280;67753;42.684;23.330;2023-07-09T09:48:28;95442.66;;;24.97;51.52
78459;BME280;67753;42.684;23.330;2023-07-09T09:50:32;95445.66;;;25.15;52.09
78459;BME280;67753;42.684;23.330;2023-07-09T09:52:34;95445.91;;;25.08;52.01
78459;BME280;67753;42.684;23.330;2023-07-09T09:54:40;95435.66;;;24.96;51.61
78459;BME280;67753;42.684;23.330;2023-07-09T09:56:42;95447.75;;;25.11;50.62
78459;BME280;67753;42.684;23.330;2023-07-09T09:58:44;95443.66;;;24.90;51.67
78459;BME280;67753;42.684;23.330;2023-07-09T10:00:49;95450.22;;;24.93;50.54
78459;BME280;67753;42.684;23.330;2023-07-09T10:02:56;95447.59;;;25.02;50.93
78459;BME280;67753;42.684;23.330;2023-07-09T10:04:59;95437.91;;;24.72;51.03
78459;BME280;67753;42.684;23.330;2023-07-09T10:07:07;95437.28;;;24.81;51.62
78459;BME280;67753;42.684;23.330;2023-07-09T10:09:23;95442.78;;;25.06;51.39
78459;BME280;67753;42.684;23.330;2023-07-09T10:11:35;95433.72;;;25.09;50.51
78459;BME280;67753;42.684;23.330;2023-07-09T10:13:44;95443.22;;;24.92;50.73
78459;BME280;67753;42.684;23.330;2023-07-09T10:15:56;95432.00;;;24.86;51.12
78459;BME280;67753;42.684;23.330;2023-07-09T10:18:03;95431.41;;;25.08;50.18
78459;BME280;67753;42.684;23.330;2023-07-09T10:20:18;95431.97;;;25.15;50.34
78459;BME280;67753;42.684;23.330;2023-07-09T10:22:38;95426.03;;;25.30;49.86
78459;BME280;67753;42.684;23.330;2023-07-09T10:24:51;95429.53;;;25.43;49.58
78459;BME280;67753;42.684;23.330;2023-07-09T10:27:00;95420.09;;;25.44;49.43
78459;BME280;67753;42.684;23.330;2023-07-09T10:29:35;95436.03;;;25.36;49.47
78459;BME280;67753;42.684;23.330;2023-07-09T10:31:47;95428.31;;;25.44;48.70
78459;BME280;67753;42.684;23.330;2023-07-09T10:34:00;95428.66;;;25.46;49.31
78459;BME280;67753;42.684;23.330;2023-07-09T10:36:16;95420.19;;;25.66;48.72
78459;BME280;67753;42.684;23.330;2023-07-09T10:38:33;95423.59;;;25.44;48.69
78459;BME280;67753;42.684;23.330;2023-07-09T10:40:41;95423.28;;;25.55;48.04
78459;BME280;67753;42.684;23.330;2023-07-09T10:42:46;95417.03;;;25.42;47.85
78459;BME280;67753;42.684;23.330;2023-07-09T10:44:55;95419.84;;;25.77;47.13
78459;BME280;67753;42.684;23.330;2023-07-09T10:47:03;95410.25;;;25.94;47.02
78459;BME280;67753;42.684;23.330;2023-07-09T10:49:10;95415.41;;;25.92;47.59